createdAt,value
2019-03-20T00:00:27.056Z,-1.09
2019-03-20T00:02:57.812Z,-1.07
2019-03-20T00:05:29.627Z,-1.25
2019-03-20T00:07:59.715Z,-1.24
2019-03-20T00:10:30.942Z,-1.26
2019-03-20T00:13:03.016Z,-1.28
2019-03-20T00:15:34.831Z,-1.34
2019-03-20T00:18:05.154Z,-1.30
2019-03-20T00:20:35.690Z,-1.38
2019-03-20T00:23:05.911Z,-1.41
2019-03-20T00:25:36.594Z,-1.47
2019-03-20T00:28:07.762Z,-1.37
2019-03-20T00:30:37.996Z,-1.47
2019-03-20T00:33:08.287Z,-1.58
2019-03-20T00:35:40.686Z,-1.61
2019-03-20T00:38:10.737Z,-1.55
2019-03-20T00:40:40.992Z,-1.53
2019-03-20T00:43:11.335Z,-1.61
2019-03-20T00:45:41.593Z,-1.70
2019-03-20T00:48:13.304Z,-1.64
2019-03-20T00:50:45.525Z,-1.66
2019-03-20T00:53:19.727Z,-1.68
2019-03-20T00:55:53.266Z,-1.71
2019-03-20T00:58:23.765Z,-1.78
2019-03-20T01:00:54.108Z,-1.73
2019-03-20T01:03:25.619Z,-1.73
2019-03-20T01:05:55.763Z,-1.73
2019-03-20T01:08:28.613Z,-1.83
2019-03-20T01:11:01.692Z,-1.89
2019-03-20T01:13:32.302Z,-1.84
2019-03-20T01:16:03.526Z,-1.75
2019-03-20T01:18:34.247Z,-1.81
2019-03-20T01:21:04.523Z,-1.76
2019-03-20T01:23:35.582Z,-1.83
2019-03-20T01:26:06.256Z,-1.91
2019-03-20T01:28:39.066Z,-1.99
2019-03-20T01:31:10.446Z,-2.01
2019-03-20T01:33:41.246Z,-1.95
2019-03-20T01:36:11.542Z,-1.95
2019-03-20T01:38:44.094Z,-2.03
2019-03-20T01:41:16.617Z,-2.09
2019-03-20T01:43:48.399Z,-2.08
2019-03-20T01:46:18.870Z,-2.04
2019-03-20T01:48:49.281Z,-2.13
2019-03-20T01:51:23.819Z,-2.16
2019-03-20T01:53:53.942Z,-2.09
2019-03-20T01:56:24.119Z,-2.10
2019-03-20T01:58:54.282Z,-2.06
2019-03-20T02:01:26.279Z,-2.07
2019-03-20T02:03:59.718Z,-2.16
2019-03-20T02:06:30.372Z,-2.21
2019-03-20T02:09:00.597Z,-2.18
2019-03-20T02:11:32.782Z,-2.23
2019-03-20T02:14:04.067Z,-2.22
2019-03-20T02:16:34.423Z,-2.33
2019-03-20T02:19:07.341Z,-2.46
2019-03-20T02:21:37.996Z,-2.54
2019-03-20T02:24:08.781Z,-2.42
2019-03-20T02:26:41.777Z,-2.37
2019-03-20T02:29:14.126Z,-2.33
2019-03-20T02:31:44.305Z,-2.37
2019-03-20T02:34:15.459Z,-2.41
2019-03-20T02:36:45.637Z,-2.35
2019-03-20T02:39:16.006Z,-2.39
2019-03-20T02:41:48.046Z,-2.43
2019-03-20T02:44:19.314Z,-2.43
2019-03-20T02:46:52.498Z,-2.45
2019-03-20T02:49:23.275Z,-2.51
2019-03-20T02:51:53.611Z,-2.48
2019-03-20T02:54:23.855Z,-2.42
2019-03-20T02:56:54.104Z,-2.43
2019-03-20T02:59:24.267Z,-2.49
2019-03-20T03:01:54.427Z,-2.55
2019-03-20T03:04:24.912Z,-2.63
2019-03-20T03:06:57.847Z,-2.60
2019-03-20T03:09:28.093Z,-2.60
2019-03-20T03:11:59.935Z,-2.68
2019-03-20T03:14:31.172Z,-2.72
2019-03-20T03:17:01.554Z,-2.65
2019-03-20T03:19:32.650Z,-2.67
2019-03-20T03:22:06.653Z,-2.71
2019-03-20T03:24:37.042Z,-2.83
2019-03-20T03:27:07.428Z,-2.80
2019-03-20T03:29:40.322Z,-2.78
2019-03-20T03:32:10.486Z,-2.77
2019-03-20T03:34:40.716Z,-2.77
2019-03-20T03:37:10.957Z,-2.87
2019-03-20T03:39:41.776Z,-2.91
2019-03-20T03:42:12.089Z,-2.95
2019-03-20T03:44:44.599Z,-2.89
2019-03-20T03:47:14.772Z,-2.91
2019-03-20T03:49:45.121Z,-2.99
2019-03-20T03:52:15.791Z,-3.01
2019-03-20T03:54:47.334Z,-3.04
2019-03-20T03:57:17.602Z,-3.11
2019-03-20T03:59:47.762Z,-3.12
2019-03-20T04:02:18.201Z,-3.14
2019-03-20T04:04:48.837Z,-3.16
2019-03-20T04:07:19.167Z,-3.25
2019-03-20T04:09:49.477Z,-3.28
2019-03-20T04:12:20.406Z,-3.26
2019-03-20T04:14:52.525Z,-3.27
2019-03-20T04:17:27.509Z,-3.31
2019-03-20T04:19:57.844Z,-3.35
2019-03-20T04:22:28.156Z,-3.31
2019-03-20T04:24:58.604Z,-3.27
2019-03-20T04:27:29.280Z,-3.30
2019-03-20T04:29:59.892Z,-3.32
2019-03-20T04:32:30.028Z,-3.35
2019-03-20T04:35:00.485Z,-3.35
2019-03-20T04:37:31.130Z,-3.36
2019-03-20T04:40:01.432Z,-3.38
2019-03-20T04:42:31.684Z,-3.39
2019-03-20T04:45:01.971Z,-3.39
2019-03-20T04:47:32.318Z,-3.42
2019-03-20T04:50:03.018Z,-3.36
2019-03-20T04:52:33.267Z,-3.43
2019-03-20T04:55:03.926Z,-3.51
2019-03-20T04:57:34.229Z,-3.53
2019-03-20T05:00:07.686Z,-3.54
2019-03-20T05:02:38.085Z,-3.56
2019-03-20T05:05:08.991Z,-3.53
2019-03-20T05:07:42.409Z,-3.55
2019-03-20T05:10:13.981Z,-3.54
2019-03-20T05:12:45.479Z,-3.56
2019-03-20T05:15:15.963Z,-3.53
2019-03-20T05:17:48.804Z,-3.45
2019-03-20T05:20:19.172Z,-3.50
2019-03-20T05:22:49.563Z,-3.57
2019-03-20T05:25:20.898Z,-3.68
2019-03-20T05:27:51.455Z,-3.53
2019-03-20T05:30:21.822Z,-3.53
2019-03-20T05:32:54.984Z,-3.45
2019-03-20T05:35:26.479Z,-3.53
2019-03-20T05:37:56.871Z,-3.62
2019-03-20T05:40:29.434Z,-3.59
2019-03-20T05:43:00.033Z,-3.55
2019-03-20T05:45:30.234Z,-3.43
2019-03-20T05:48:00.676Z,-3.35
2019-03-20T05:50:31.085Z,-3.33
2019-03-20T05:53:03.274Z,-3.31
2019-03-20T05:55:33.503Z,-3.37
2019-03-20T05:58:06.455Z,-3.48
2019-03-20T06:00:36.835Z,-3.56
2019-03-20T06:03:10.170Z,-3.45
2019-03-20T06:05:40.898Z,-3.45
2019-03-20T06:08:13.274Z,-3.12
2019-03-20T06:10:43.586Z,-2.93
2019-03-20T06:13:14.609Z,-2.77
2019-03-20T06:15:44.843Z,-2.56
2019-03-20T06:18:15.204Z,-2.33
2019-03-20T06:20:45.471Z,-2.18
2019-03-20T06:23:17.614Z,-2.05
2019-03-20T06:25:48.255Z,-1.78
2019-03-20T06:28:18.853Z,-1.78
2019-03-20T06:30:49.138Z,-1.61
2019-03-20T06:33:19.538Z,-1.37
2019-03-20T06:35:49.687Z,-1.13
2019-03-20T06:38:20.166Z,-0.97
2019-03-20T06:40:50.793Z,-0.91
2019-03-20T06:43:21.204Z,-0.73
2019-03-20T06:45:51.527Z,-0.40
2019-03-20T06:48:21.684Z,-0.18
2019-03-20T06:50:52.003Z,-0.01
2019-03-20T06:53:22.738Z,-0.01
2019-03-20T06:55:55.328Z,0.27
2019-03-20T06:58:25.798Z,0.54
2019-03-20T07:01:30.384Z,0.65
2019-03-20T07:04:31.288Z,0.81
2019-03-20T07:07:25.627Z,0.83
2019-03-20T07:10:23.862Z,1.04
2019-03-20T07:12:54.298Z,1.44
2019-03-20T07:15:24.504Z,1.69
2019-03-20T07:17:54.788Z,1.97
2019-03-20T07:20:24.948Z,2.40
2019-03-20T07:22:55.114Z,2.49
2019-03-20T07:25:25.366Z,2.77
2019-03-20T07:27:57.732Z,2.93
2019-03-20T07:30:28.156Z,3.23
2019-03-20T07:32:58.621Z,3.37
2019-03-20T07:35:29.013Z,3.56
2019-03-20T07:37:59.945Z,3.98
2019-03-20T07:40:30.040Z,4.25
2019-03-20T07:43:08.853Z,4.51
2019-03-20T07:45:32.743Z,4.96
2019-03-20T07:48:03.465Z,5.19
2019-03-20T07:50:34.243Z,5.42
2019-03-20T07:53:04.539Z,5.59
2019-03-20T07:55:35.413Z,5.94
2019-03-20T07:58:06.229Z,6.47
2019-03-20T08:00:36.838Z,7.12
2019-03-20T08:03:07.274Z,7.38
2019-03-20T08:05:38.449Z,7.83
2019-03-20T08:08:09.706Z,8.19
2019-03-20T08:10:40.259Z,9.43
2019-03-20T08:13:10.600Z,11.13
2019-03-20T08:15:40.889Z,12.51
2019-03-20T08:18:12.762Z,12.38
2019-03-20T08:20:43.119Z,13.25
2019-03-20T08:23:13.515Z,13.95
2019-03-20T08:25:46.218Z,15.21
2019-03-20T08:28:16.623Z,16.21
2019-03-20T08:30:46.903Z,16.18
2019-03-20T08:33:17.273Z,16.87
2019-03-20T08:35:47.485Z,17.53
2019-03-20T08:38:18.912Z,17.67
2019-03-20T08:40:52.707Z,17.78
2019-03-20T08:43:23.081Z,19.09
2019-03-20T08:45:53.543Z,18.99
2019-03-20T08:48:24.133Z,19.64
2019-03-20T08:50:54.641Z,19.60
2019-03-20T08:53:25.431Z,19.78
2019-03-20T08:55:56.074Z,20.05
2019-03-20T08:58:26.595Z,21.29
2019-03-20T09:00:57.391Z,22.42
2019-03-20T09:03:27.948Z,22.54
2019-03-20T09:06:00.318Z,22.06
2019-03-20T09:08:30.939Z,22.65
2019-03-20T09:11:01.424Z,23.60
2019-03-20T09:13:31.993Z,24.75
2019-03-20T09:16:02.310Z,25.00
2019-03-20T09:18:32.693Z,25.75
2019-03-20T09:21:03.587Z,26.51
2019-03-20T09:23:34.714Z,26.99
2019-03-20T09:26:09.047Z,26.33
2019-03-20T09:28:39.874Z,26.61
2019-03-20T09:31:10.375Z,27.42
2019-03-20T09:33:41.201Z,28.17
2019-03-20T09:36:11.708Z,28.24
2019-03-20T09:38:43.777Z,28.46
2019-03-20T09:41:14.172Z,29.03
2019-03-20T09:43:44.574Z,29.00
2019-03-20T09:46:15.088Z,29.90
2019-03-20T09:48:45.520Z,30.38
2019-03-20T09:51:17.958Z,29.00
2019-03-20T09:53:49.725Z,27.28
2019-03-20T09:56:22.801Z,26.77
2019-03-20T09:58:59.011Z,26.07
2019-03-20T10:01:31.834Z,28.37
2019-03-20T10:04:04.617Z,27.13
2019-03-20T10:06:34.808Z,27.25
2019-03-20T10:09:09.370Z,29.80
2019-03-20T10:11:39.696Z,27.22
2019-03-20T10:14:13.493Z,27.13
2019-03-20T10:16:43.878Z,27.96
2019-03-20T10:19:17.258Z,28.52
2019-03-20T10:21:47.518Z,27.99
2019-03-20T10:24:17.848Z,25.78
2019-03-20T10:26:50.335Z,28.76
2019-03-20T10:29:20.886Z,26.43
2019-03-20T10:31:51.076Z,27.32
2019-03-20T10:34:21.469Z,26.71
2019-03-20T10:36:54.999Z,29.11
2019-03-20T10:39:25.573Z,26.01
2019-03-20T10:41:56.062Z,26.40
2019-03-20T10:44:26.780Z,26.57
2019-03-20T10:46:57.094Z,26.13
2019-03-20T10:49:27.415Z,28.16
2019-03-20T10:52:04.868Z,30.02
2019-03-20T10:54:37.700Z,29.25
2019-03-20T10:57:08.391Z,30.07
2019-03-20T10:59:39.018Z,30.07
2019-03-20T11:02:09.203Z,28.96
2019-03-20T11:04:39.850Z,28.06
2019-03-20T11:07:10.318Z,28.54
2019-03-20T11:09:40.644Z,29.65
2019-03-20T11:12:11.123Z,31.31
2019-03-20T11:14:41.717Z,27.12
2019-03-20T11:17:12.203Z,26.02
2019-03-20T11:19:45.911Z,27.82
2019-03-20T11:22:19.212Z,29.33
2019-03-20T11:24:50.439Z,30.13
2019-03-20T11:27:20.839Z,29.05
2019-03-20T11:29:54.406Z,28.16
2019-03-20T11:32:25.209Z,28.31
2019-03-20T11:34:56.435Z,28.43
2019-03-20T11:37:26.704Z,26.28
2019-03-20T11:39:57.080Z,27.22
2019-03-20T11:42:29.614Z,25.86
2019-03-20T11:45:00.640Z,27.41
2019-03-20T11:47:31.155Z,28.27
2019-03-20T11:50:04.188Z,28.91
2019-03-20T11:52:34.326Z,30.09
2019-03-20T11:55:05.570Z,28.74
2019-03-20T11:57:35.855Z,26.72
2019-03-20T12:00:07.739Z,26.67
2019-03-20T12:02:37.990Z,26.67
2019-03-20T12:05:11.134Z,26.03
2019-03-20T12:07:41.431Z,26.52
2019-03-20T12:10:14.851Z,25.51
2019-03-20T12:12:45.327Z,27.02
2019-03-20T12:15:15.744Z,28.37
2019-03-20T12:17:45.973Z,29.04
2019-03-20T12:20:17.726Z,27.64
2019-03-20T12:22:50.168Z,26.42
2019-03-20T12:25:23.488Z,26.15
2019-03-20T12:27:53.762Z,26.06
2019-03-20T12:30:27.197Z,26.19
2019-03-20T12:32:57.678Z,28.71
2019-03-20T12:35:29.038Z,28.37
2019-03-20T12:37:59.452Z,28.85
2019-03-20T12:40:30.687Z,30.28
2019-03-20T12:43:01.424Z,28.89
2019-03-20T12:45:33.099Z,28.23
2019-03-20T12:48:03.370Z,28.64
2019-03-20T12:50:33.635Z,30.63
2019-03-20T12:53:04.200Z,32.11
2019-03-20T12:55:34.902Z,32.44
2019-03-20T12:58:05.759Z,31.71
2019-03-20T13:00:36.068Z,30.38
2019-03-20T13:03:06.351Z,31.72
2019-03-20T13:05:36.608Z,28.06
2019-03-20T13:08:07.273Z,27.42
2019-03-20T13:10:38.911Z,27.01
2019-03-20T13:13:09.200Z,27.93
2019-03-20T13:15:39.470Z,27.44
2019-03-20T13:18:10.104Z,29.88
2019-03-20T13:20:40.699Z,31.27
2019-03-20T13:23:15.823Z,30.61
2019-03-20T13:25:46.170Z,29.61
2019-03-20T13:28:20.817Z,28.23
2019-03-20T13:30:57.056Z,28.11
2019-03-20T13:33:28.489Z,26.97
2019-03-20T13:35:59.121Z,27.79
2019-03-20T13:38:29.478Z,26.95
2019-03-20T13:40:59.882Z,28.02
2019-03-20T13:43:30.230Z,26.43
2019-03-20T13:46:01.241Z,27.17
2019-03-20T13:48:32.792Z,28.97
2019-03-20T13:51:03.467Z,26.68
2019-03-20T13:53:36.810Z,26.24
2019-03-20T13:56:07.035Z,23.55
2019-03-20T13:58:37.448Z,21.52
2019-03-20T14:01:08.126Z,19.71
2019-03-20T14:03:38.396Z,19.71
2019-03-20T14:06:11.329Z,20.28
2019-03-20T14:08:41.582Z,19.88
2019-03-20T14:11:13.744Z,20.34
2019-03-20T14:13:44.001Z,19.81
2019-03-20T14:16:14.286Z,20.50
2019-03-20T14:18:44.528Z,20.03
2019-03-20T14:21:14.738Z,19.60
2019-03-20T14:23:46.995Z,21.06
2019-03-20T14:26:17.215Z,20.74
2019-03-20T14:28:47.420Z,21.18
2019-03-20T14:31:20.870Z,20.21
2019-03-20T14:33:51.366Z,19.71
2019-03-20T14:36:21.730Z,20.26
2019-03-20T14:38:51.937Z,20.26
2019-03-20T14:41:24.781Z,20.04
2019-03-20T14:43:56.205Z,20.23
2019-03-20T14:46:26.484Z,18.37
2019-03-20T14:48:56.666Z,17.09
2019-03-20T14:51:27.137Z,17.38
2019-03-20T14:53:57.253Z,16.69
2019-03-20T14:56:27.711Z,16.28
2019-03-20T14:58:58.999Z,15.47
2019-03-20T15:01:31.071Z,15.35
2019-03-20T15:04:03.994Z,14.98
2019-03-20T15:06:34.529Z,14.76
2019-03-20T15:09:07.203Z,15.29
2019-03-20T15:11:37.782Z,15.27
2019-03-20T15:14:08.179Z,14.86
2019-03-20T15:16:39.981Z,13.87
2019-03-20T15:19:10.496Z,13.82
2019-03-20T15:21:44.235Z,13.87
2019-03-20T15:24:15.800Z,13.62
2019-03-20T15:26:46.229Z,13.39
2019-03-20T15:29:16.365Z,13.30
2019-03-20T15:31:47.390Z,13.43
2019-03-20T15:34:17.638Z,13.02
2019-03-20T15:36:48.187Z,13.34
2019-03-20T15:39:18.825Z,13.74
2019-03-20T15:41:49.357Z,13.29
2019-03-20T15:44:19.501Z,13.30
2019-03-20T15:46:50.034Z,13.52
2019-03-20T15:49:20.214Z,13.62
2019-03-20T15:51:50.814Z,13.57
2019-03-20T15:54:21.164Z,13.15
2019-03-20T15:56:51.480Z,13.09
2019-03-20T15:59:21.690Z,12.70
2019-03-20T16:01:53.144Z,12.47
2019-03-20T16:04:24.892Z,12.54
2019-03-20T16:06:57.411Z,12.34
2019-03-20T16:09:28.019Z,12.22
2019-03-20T16:11:58.360Z,12.13
2019-03-20T16:14:28.863Z,12.17
2019-03-20T16:16:59.138Z,12.16
2019-03-20T16:19:29.776Z,12.27
2019-03-20T16:22:00.208Z,12.10
2019-03-20T16:24:30.613Z,11.92
2019-03-20T16:27:03.829Z,11.85
2019-03-20T16:29:35.634Z,11.76
2019-03-20T16:32:11.588Z,11.53
2019-03-20T16:34:41.952Z,11.62
2019-03-20T16:37:12.158Z,11.61
2019-03-20T16:39:42.513Z,11.60
2019-03-20T16:42:12.889Z,11.44
2019-03-20T16:44:43.391Z,11.48
2019-03-20T16:47:16.016Z,11.56
2019-03-20T16:49:46.441Z,11.35
2019-03-20T16:52:17.079Z,11.23
2019-03-20T16:54:47.531Z,11.12
2019-03-20T16:57:18.155Z,11.06
2019-03-20T16:59:48.555Z,10.94
2019-03-20T17:02:19.071Z,10.86
2019-03-20T17:04:49.747Z,10.88
2019-03-20T17:07:20.345Z,10.76
2019-03-20T17:09:56.640Z,10.64
2019-03-20T17:12:26.880Z,10.61
2019-03-20T17:14:57.426Z,10.54
2019-03-20T17:17:27.896Z,10.49
2019-03-20T17:19:58.052Z,10.36
2019-03-20T17:22:29.578Z,10.29
2019-03-20T17:24:59.714Z,10.16
2019-03-20T17:27:29.892Z,10.03
2019-03-20T17:30:00.323Z,9.91
2019-03-20T17:32:31.009Z,9.78
2019-03-20T17:35:01.210Z,9.69
2019-03-20T17:37:36.013Z,9.49
2019-03-20T17:40:07.158Z,9.29
2019-03-20T17:42:39.924Z,9.19
2019-03-20T17:45:12.010Z,9.13
2019-03-20T17:47:42.261Z,9.01
2019-03-20T17:50:18.382Z,8.95
2019-03-20T17:53:08.562Z,8.74
2019-03-20T17:55:38.874Z,8.64
2019-03-20T17:58:10.486Z,8.47
2019-03-20T18:00:43.376Z,8.34
2019-03-20T18:03:13.876Z,8.18
2019-03-20T18:05:44.549Z,7.99
2019-03-20T18:08:14.820Z,7.98
2019-03-20T18:10:45.185Z,7.81
2019-03-20T18:13:15.783Z,7.58
2019-03-20T18:15:46.262Z,7.41
2019-03-20T18:18:16.739Z,7.35
2019-03-20T18:20:46.878Z,7.34
2019-03-20T18:23:20.040Z,7.26
2019-03-20T18:25:50.292Z,7.12
2019-03-20T18:28:21.752Z,7.03
2019-03-20T18:30:54.138Z,7.02
2019-03-20T18:33:24.541Z,6.94
2019-03-20T18:35:55.320Z,6.84
2019-03-20T18:38:27.168Z,6.66
2019-03-20T18:40:57.842Z,6.48
2019-03-20T18:43:29.120Z,6.46
2019-03-20T18:46:01.279Z,6.43
2019-03-20T18:48:36.202Z,6.34
2019-03-20T18:51:06.630Z,6.21
2019-03-20T18:53:39.699Z,6.00
2019-03-20T18:56:09.960Z,5.81
2019-03-20T18:58:40.339Z,5.74
2019-03-20T19:01:10.571Z,5.49
2019-03-20T19:03:43.312Z,5.38
2019-03-20T19:06:17.717Z,5.33
2019-03-20T19:08:48.078Z,5.33
2019-03-20T19:11:18.359Z,5.25
2019-03-20T19:13:52.019Z,5.23
2019-03-20T19:16:22.366Z,5.15
2019-03-20T19:18:53.386Z,5.18
2019-03-20T19:21:23.678Z,5.07
2019-03-20T19:23:55.208Z,4.91
2019-03-20T19:26:25.982Z,4.69
2019-03-20T19:28:56.328Z,4.61
2019-03-20T19:31:29.360Z,4.61
2019-03-20T19:34:00.700Z,4.53
2019-03-20T19:36:30.858Z,4.44
2019-03-20T19:39:01.206Z,4.35
2019-03-20T19:41:33.071Z,4.27
2019-03-20T19:44:04.815Z,4.19
2019-03-20T19:46:35.372Z,4.14
2019-03-20T19:49:06.424Z,4.02
2019-03-20T19:51:36.781Z,3.87
2019-03-20T19:54:07.174Z,3.73
2019-03-20T19:56:39.190Z,3.61
2019-03-20T19:59:11.709Z,3.59
2019-03-20T20:01:42.401Z,3.58
2019-03-20T20:04:14.459Z,3.56
2019-03-20T20:06:47.552Z,3.46
2019-03-20T20:09:19.220Z,3.43
2019-03-20T20:11:50.009Z,3.40
2019-03-20T20:14:21.253Z,3.30
2019-03-20T20:16:53.966Z,3.17
2019-03-20T20:19:24.575Z,3.09
2019-03-20T20:21:55.183Z,2.98
2019-03-20T20:24:26.119Z,2.96
2019-03-20T20:26:56.832Z,2.88
2019-03-20T20:29:27.615Z,2.84
2019-03-20T20:32:07.607Z,2.83
2019-03-20T20:34:33.432Z,2.76
2019-03-20T20:37:03.891Z,2.71
2019-03-20T20:39:34.306Z,2.59
2019-03-20T20:42:11.769Z,2.57
2019-03-20T20:44:45.082Z,2.57
2019-03-20T20:47:18.531Z,2.54
2019-03-20T20:49:49.553Z,2.41
2019-03-20T20:52:20.805Z,2.31
2019-03-20T20:54:51.454Z,2.25
2019-03-20T20:57:22.020Z,2.19
2019-03-20T20:59:52.360Z,2.13
2019-03-20T21:02:26.961Z,2.09
2019-03-20T21:04:57.631Z,2.12
2019-03-20T21:07:27.872Z,2.04
2019-03-20T21:09:58.112Z,1.89
2019-03-20T21:12:31.232Z,1.83
2019-03-20T21:15:05.891Z,1.81
2019-03-20T21:17:50.865Z,1.72
2019-03-20T21:20:21.843Z,1.65
2019-03-20T21:23:40.350Z,1.60
2019-03-20T21:26:13.760Z,1.50
2019-03-20T21:29:27.180Z,1.37
2019-03-20T21:32:09.840Z,1.35
2019-03-20T21:35:25.971Z,1.31
2019-03-20T21:38:04.361Z,1.27
2019-03-20T21:40:54.488Z,1.23
2019-03-20T21:44:06.836Z,1.21
2019-03-20T21:47:21.244Z,1.14
2019-03-20T21:49:53.045Z,1.15
2019-03-20T21:52:25.585Z,1.05
2019-03-20T21:55:40.352Z,1.01
2019-03-20T21:58:34.961Z,0.92
2019-03-20T22:01:52.662Z,0.76
2019-03-20T22:04:23.968Z,0.72
2019-03-20T22:07:07.139Z,0.58
2019-03-20T22:10:16.329Z,0.68
2019-03-20T22:12:56.225Z,0.66
2019-03-20T22:15:41.628Z,0.55
2019-03-20T22:19:02.421Z,0.44
2019-03-20T22:22:09.956Z,0.49
2019-03-20T22:25:16.544Z,0.45
2019-03-20T22:27:58.883Z,0.42
2019-03-20T22:30:29.829Z,0.45
2019-03-20T22:33:49.212Z,0.39
2019-03-20T22:36:24.544Z,0.33
2019-03-20T22:39:54.035Z,0.30
2019-03-20T22:42:49.057Z,0.26
2019-03-20T22:46:05.677Z,0.28
2019-03-20T22:49:17.307Z,0.34
2019-03-20T22:52:35.697Z,0.24
2019-03-20T22:55:37.970Z,0.28
2019-03-20T22:58:28.102Z,0.17
2019-03-20T23:00:58.979Z,0.17
2019-03-20T23:03:35.030Z,0.15
2019-03-20T23:06:06.136Z,0.11
2019-03-20T23:08:36.831Z,0.11
2019-03-20T23:11:08.840Z,0.07
2019-03-20T23:13:41.731Z,0.03
2019-03-20T23:16:13.668Z,-0.01
2019-03-20T23:18:47.770Z,-0.07
2019-03-20T23:21:19.000Z,-0.10
2019-03-20T23:23:49.847Z,-0.01
2019-03-20T23:26:20.621Z,-0.11
2019-03-20T23:28:51.989Z,-0.22
2019-03-20T23:31:22.931Z,-0.24
2019-03-20T23:33:53.964Z,-0.28
2019-03-20T23:36:27.041Z,-0.31
2019-03-20T23:38:58.228Z,-0.33
2019-03-20T23:41:29.372Z,-0.33
2019-03-20T23:44:01.458Z,-0.43
2019-03-20T23:46:32.283Z,-0.43
2019-03-20T23:49:15.527Z,-0.47
2019-03-20T23:51:52.148Z,-0.46
2019-03-20T23:54:28.129Z,-0.56
2019-03-20T23:56:58.925Z,-0.60
2019-03-20T23:59:32.803Z,-0.62
